Southington, CT (06489)

3:34 PM EDT on August 31, 2015 (GMT -0400)
Hart St | | Change Station
CLOSE
Current Station
Personal Weather Station
Location: Southington, CT
Elevation: 256 ft
Nearby Weather Stations

Elev 256 ft 41.61 °N, 72.88 °W | Updated 8 seconds ago

Clear
Clear
86.7 °F
Feels Like 91 °F
N
0.0
Wind Variable Wind from SE
Gusts 0.0 mph

Today
High -- | Low -- °F
--% Chance of Precip.
Yesterday
High -- | Low -- °F
Precip. -- in
6:16 AM 7:26 PM
Waning Gibbous, 94% visible
Pressure 29.94 in
Visibility 10.0 miles
Clouds Few 5000 ft
Heat Index 91 °F
Dew Point 69 °F
Humidity 56%
Rainfall 0.00 in
Snow Depth Not available.
UV 3.0 out of 12
Pollen 10.20 out of 12
Air Quality Not available.
Flu Activity Not available.
METAR KMMK 311853Z AUTO 28006KT 10SM FEW050 32/18 A2995 RMK AO2 SLP138 T03170178 TSNO
Pressure 29.94 in
Visibility 10.0 miles
Clouds Few 5000 ft
Heat Index 91 °F
Dew Point 69 °F
Humidity 56%
Rainfall 0.00 in
Snow Depth Not available.
UV 3.0 out of 12
Pollen 10.20 out of 12
Air Quality Not available.
Flu Activity Not available.
METAR KMMK 311853Z AUTO 28006KT 10SM FEW050 32/18 A2995 RMK AO2 SLP138 T03170178 TSNO

10-Day Weather Forecast

×

Almanac

Astronomy

Aug. 31, 2015 Rise Set
Actual Time
Civil Twilight
Nautical Twilight
Astronomical Twilight
Moon
Length of Visible Light
Length of Day
Tomorrow will be .
, % of the Moon is Illuminated

Today's Extremes

State Highs State Lows

Community

WunderPhotos

Upload Photos

1,851,342 photos uploaded!

WunderBlogs® & News

Nearby

Air Quality

  Air Quality AQ Index Pollutant
Not available.

Snow Depth

Station Depth Elevation

Earthquake Activity

City Distance Mag. Time & Date
Minimum magnitude displayed is 2.5.

Coastal Water Temperatures

Place Temperature

Stations

Nearby Weather Stations

Station Location Temp. Windchill Dew Point Humidity Wind Precip. Elev Updated Type